Impacts METAR Board
IDs:

KATL - Atlanta/Hartsfield-J, GA, US

Updated at: 0700 UTC 11 Dec 2018
Potential Impact None Slight Moderate High
Time 10/19Z 10/20Z 10/21Z 10/22Z 10/23Z 11/00Z 11/01Z 11/02Z 11/03Z 11/04Z 11/05Z 11/06Z 11/07Z
Temp43 43 42 42 41 41 40 40 40 41 41 41 41
Dewpt39 40 39 39 38 38 37 38 37 38 38 38 38
Altim30.08 30.08 30.09 30.11 30.13 30.15 30.16 30.17 30.18 30.18 30.19 30.20 30.20
VIS3 3 2 2 2 6 8 7 7 7 7 7 5
CIG7 19 7 7 6 7 50 6 8 6 6 12 5
CoverOVCOVCOVCOVCOVCOVCOVCOVCOVCOVCOVCOVCBKN
FltCatIFRMVFRIFRIFRIFRIFRVFRIFRIFRIFRIFRMVFRIFR
WXBRBR-RA BR-RA BR-RA BR-RA BR-RA-RA-RA-RA----BR
WDir300320320320330340340340340340330330300
WSpd6 8 10 10 9 7 7 8 6 5 6 7 5
WGst-- -- -- -- -- -- -- -- -- -- -- -- --
Raw hourly METARs
KATL 101852Z 30006KT 3SM BR BKN007 BKN012 OVC020 06/04 A3008 RMK AO2 SFC VIS 6 RAE48 SLP191 P0000 T00610039
KATL 101959Z 32008KT 3SM BR SCT007 BKN019 OVC025 06/04 A3008 RMK AO2 SFC VIS 5 T00610044
KATL 102052Z 32010KT 2SM -RA BR BKN007 BKN020 OVC040 06/04 A3009 RMK AO2 SFC VIS 3 RAB42 SLP195 P0000 60001 T00560039 53004
KATL 102152Z 32010KT 2SM -RA BR BKN007 BKN010 OVC020 06/04 A3011 RMK AO2 SFC VIS 3 SLP203 P0001 T00560039
KATL 102252Z 33009KT 2SM -RA BR BKN006 BKN015 OVC025 05/03 A3013 RMK AO2 SFC VIS 4 SLP209 P0001 T00500033
KATL 102352Z 34007KT 6SM -RA BR BKN007 BKN015 OVC050 05/03 A3015 RMK AO2 SLP215 P0002 60005 T00500033 10061 20050 51019
KATL 110052Z 34007KT 8SM -RA FEW007 SCT025 BKN050 OVC150 04/03 A3016 RMK AO2 SLP217 P0001 T00440028
KATL 110152Z 34008KT 7SM -RA BKN006 BKN012 OVC050 04/03 A3017 RMK AO2 SLP221 P0001 T00440033
KATL 110252Z 34006KT 7SM -RA BKN008 OVC050 04/03 A3018 RMK AO2 SLP224 CIG 005V011 P0001 60003 T00440028 53008
KATL 110352Z 34005KT 7SM -RA BKN006 OVC020 05/03 A3018 RMK AO2 SLP227 P0000 T00500033
KATL 110452Z 33006KT 7SM OVC006 05/03 A3019 RMK AO2 RAE37 SLP229 CIG 005V009 P0000 T00500033 400610039
KATL 110552Z 33007KT 7SM SCT006 BKN012 OVC025 05/03 A3020 RMK AO2 SLP232 60003 T00500033 10050 20044 51008
KATL 110652Z 30005KT 5SM BR BKN005 BKN017 05/03 A3020 RMK AO2 SLP232 T00500033



Page loaded:  07:45 UTC  |   11:45 PM Pacific  |   12:45 AM Mountain  |   01:45 AM Central  |   02:45 AM Eastern

 

ADVISORIES

FORECASTS

FORECASTS

OBSERVATIONS

USER TOOLS

ABOUT US